Time,TemperatureF,DewpointF,PressureIn,WindDirection,WindDirectionDegrees,WindSpeedMPH,WindSpeedGustMPH,Humidity,HourlyPrecipIn,Conditions,Clouds,dailyrainin,SoftwareType,DateUTC
2019-10-19 00:00:46,51.6,46.2,29.69,ESE,106,1.1,3,82,0,,,0,meteobridge,2019-10-18 22:00:46,
2019-10-19 00:06:46,52,46.6,29.69,WSW,241,1.1,2,82,0,,,0,meteobridge,2019-10-18 22:06:46,
2019-10-19 00:10:46,52,46.4,29.69,SSW,195,2,4,81,0,,,0,meteobridge,2019-10-18 22:10:46,
2019-10-19 00:16:46,52.2,46.6,29.69,WSW,243,1.1,3,81,0,,,0,meteobridge,2019-10-18 22:16:46,
2019-10-19 00:20:46,52.3,46.8,29.69,WSW,243,0,2,81,0,,,0,meteobridge,2019-10-18 22:20:46,
2019-10-19 00:26:46,52.5,46.9,29.69,SSE,149,2,4,81,0,,,0,meteobridge,2019-10-18 22:26:46,
2019-10-19 00:30:46,52.7,46.8,29.69,SE,140,1.1,4,80,0,,,0,meteobridge,2019-10-18 22:30:46,
2019-10-19 00:36:46,52.9,46.9,29.69,West,269,3.1,3,80,0,,,0,meteobridge,2019-10-18 22:36:46,
2019-10-19 00:40:46,53.1,47.1,29.68,West,278,1.1,3,80,0,,,0,meteobridge,2019-10-18 22:40:46,
2019-10-19 00:46:47,53.1,47.1,29.69,West,261,1.1,2,80,0,,,0,meteobridge,2019-10-18 22:46:47,
2019-10-19 00:50:47,53.1,46.8,29.69,SE,140,0,4,79,0,,,0,meteobridge,2019-10-18 22:50:47,
2019-10-19 00:56:47,53.1,47.1,29.68,SE,131,2,6,80,0,,,0,meteobridge,2019-10-18 22:56:47,
2019-10-19 01:00:47,53.1,46.8,29.68,SW,220,1.1,6,79,0,,,0,meteobridge,2019-10-18 23:00:47,
2019-10-19 01:06:47,53.1,47.1,29.68,SSW,193,1.1,2,80,0,,,0,meteobridge,2019-10-18 23:06:47,
2019-10-19 01:10:47,53.2,47.3,29.67,WSW,240,2,4,80,0,,,0,meteobridge,2019-10-18 23:10:47,
2019-10-19 01:16:47,53.1,47.1,29.67,SE,138,1.1,2,80,0,,,0,meteobridge,2019-10-18 23:16:47,
2019-10-19 01:20:47,53.1,47.1,29.67,SW,230,1.1,3,80,0,,,0,meteobridge,2019-10-18 23:20:47,
2019-10-19 01:26:48,53.1,47.1,29.67,SSE,161,0,1,80,0,,,0,meteobridge,2019-10-18 23:26:48,
2019-10-19 01:30:48,53.1,47.1,29.67,WSW,243,1.1,2,80,0,,,0,meteobridge,2019-10-18 23:30:48,
2019-10-19 01:36:48,53.1,47.1,29.67,South,172,0,0,80,0,,,0,meteobridge,2019-10-18 23:36:48,
2019-10-19 01:40:48,53.2,47.3,29.67,SW,233,1.1,6,80,0,,,0,meteobridge,2019-10-18 23:40:48,
2019-10-19 01:46:48,53.2,47.3,29.67,SSW,203,0,5,80,0,,,0,meteobridge,2019-10-18 23:46:48,
2019-10-19 01:50:48,53.2,47.3,29.67,SSW,209,0,4,80,0,,,0,meteobridge,2019-10-18 23:50:48,
2019-10-19 01:56:48,53.2,47.3,29.67,South,186,0,0,80,0,,,0,meteobridge,2019-10-18 23:56:48,
2019-10-19 02:00:48,53.2,47.3,29.67,South,189,0,0,80,0,,,0,meteobridge,2019-10-19 00:00:48,
2019-10-19 02:06:48,53.1,47.3,29.66,WSW,255,1.1,3,81,0,,,0,meteobridge,2019-10-19 00:06:48,
2019-10-19 02:10:48,53.1,47.3,29.66,South,190,0,4,81,0,,,0,meteobridge,2019-10-19 00:10:48,
2019-10-19 02:16:49,52.9,47.3,29.66,SE,140,1.1,2,81,0,,,0,meteobridge,2019-10-19 00:16:49,
2019-10-19 02:20:49,52.9,47.5,29.66,South,190,0,1,82,0,,,0,meteobridge,2019-10-19 00:20:49,
2019-10-19 02:26:49,52.9,47.5,29.65,SSW,193,0,3,82,0,,,0,meteobridge,2019-10-19 00:26:49,
2019-10-19 02:30:49,52.7,47.3,29.66,SSE,157,0,3,82,0,,,0,meteobridge,2019-10-19 00:30:49,
2019-10-19 02:36:49,52.5,47.1,29.66,SSE,152,1.1,3,82,0,,,0,meteobridge,2019-10-19 00:36:49,
2019-10-19 02:40:49,52.5,47.5,29.65,SSE,152,0,1,83,0,,,0,meteobridge,2019-10-19 00:40:49,
2019-10-19 02:46:49,52.5,47.5,29.65,SE,125,1.1,3,83,0,,,0,meteobridge,2019-10-19 00:46:49,
2019-10-19 02:50:49,52.5,47.5,29.66,SE,128,0,2,83,0,,,0,meteobridge,2019-10-19 00:50:49,
2019-10-19 02:56:50,52.5,47.5,29.66,SE,137,0,3,83,0,,,0,meteobridge,2019-10-19 00:56:50,
2019-10-19 03:00:50,52.5,47.8,29.65,SE,137,2,2,84,0,,,0,meteobridge,2019-10-19 01:00:50,
2019-10-19 03:06:50,52.3,47.7,29.65,South,180,3.1,3,84,0,,,0,meteobridge,2019-10-19 01:06:50,
2019-10-19 03:10:50,52.5,47.8,29.65,SSE,161,0,3,84,0,,,0,meteobridge,2019-10-19 01:10:50,
2019-10-19 03:16:50,52.5,47.8,29.65,SSE,151,1.1,4,84,0,,,0,meteobridge,2019-10-19 01:16:50,
2019-10-19 03:20:50,52.3,47.7,29.65,West,262,0,1,84,0,,,0,meteobridge,2019-10-19 01:20:50,
2019-10-19 03:26:50,52.3,47.7,29.65,ESE,123,0,0,84,0,,,0,meteobridge,2019-10-19 01:26:50,
2019-10-19 03:30:50,52.3,47.7,29.65,South,176,0,4,84,0,,,0,meteobridge,2019-10-19 01:30:50,
2019-10-19 03:36:51,52.3,47.7,29.65,SSE,155,0,1,84,0,,,0,meteobridge,2019-10-19 01:36:51,
2019-10-19 03:40:51,52.3,48,29.65,SSE,149,0,3,85,0,,,0,meteobridge,2019-10-19 01:40:51,
2019-10-19 03:46:51,52.3,48,29.65,SSE,152,0,1,85,0,,,0,meteobridge,2019-10-19 01:46:51,
2019-10-19 03:50:51,52.3,48,29.65,SSE,165,1.1,5,85,0,,,0,meteobridge,2019-10-19 01:50:51,
2019-10-19 03:56:51,52.5,48.2,29.65,SSW,212,4.3,4,85,0,,,0,meteobridge,2019-10-19 01:56:51,
2019-10-19 04:00:51,52.7,48.4,29.65,West,262,1.1,3,85,0,,,0,meteobridge,2019-10-19 02:00:51,
2019-10-19 04:06:51,52.9,48.7,29.65,SW,227,0,1,86,0,,,0,meteobridge,2019-10-19 02:06:51,
2019-10-19 04:10:51,53.1,48.9,29.65,SSW,203,1.1,4,86,0,,,0,meteobridge,2019-10-19 02:10:51,
2019-10-19 04:16:51,53.2,48.9,29.65,SW,223,1.1,3,85,0,,,0,meteobridge,2019-10-19 02:16:51,
2019-10-19 04:20:51,53.4,49.1,29.65,SSE,157,3.1,5,85,0,,,0,meteobridge,2019-10-19 02:20:51,
2019-10-19 04:26:52,53.8,49.5,29.65,SE,137,1.1,4,85,0,,,0,meteobridge,2019-10-19 02:26:52,
2019-10-19 04:30:52,53.8,49.5,29.65,SSE,157,0,2,85,0,,,0,meteobridge,2019-10-19 02:30:52,
2019-10-19 04:36:52,54,49.6,29.65,SW,217,3.1,9,85,0,,,0,meteobridge,2019-10-19 02:36:52,
2019-10-19 04:40:52,54,49.6,29.65,SW,223,1.1,3,85,0,,,0,meteobridge,2019-10-19 02:40:52,
2019-10-19 04:46:52,53.8,49.6,29.65,SSE,158,1.1,3,86,0,,,0,meteobridge,2019-10-19 02:46:52,
2019-10-19 04:50:52,53.8,49.6,29.65,WSW,244,1.1,3,86,0.03,,,0.01,meteobridge,2019-10-19 02:50:52,
2019-10-19 04:56:52,53.8,50,29.65,South,178,1.1,2,87,0.03,,,0.01,meteobridge,2019-10-19 02:56:52,
2019-10-19 05:00:52,53.6,50.2,29.65,South,178,0,4,88,0.06,,,0.02,meteobridge,2019-10-19 03:00:52,
2019-10-19 05:06:53,53.4,50,29.65,SW,226,2,3,88,0.13,,,0.03,meteobridge,2019-10-19 03:06:53,
2019-10-19 05:10:53,53.2,50,29.64,West,261,1.1,3,89,0.1,,,0.03,meteobridge,2019-10-19 03:10:53,
2019-10-19 05:16:53,53.2,50,29.65,SSW,213,0,1,89,0.07,,,0.04,meteobridge,2019-10-19 03:16:53,
2019-10-19 05:20:53,53.1,49.8,29.64,SE,137,0,0,89,0.06,,,0.04,meteobridge,2019-10-19 03:20:53,
2019-10-19 05:26:53,53.1,50.2,29.64,SSE,154,0,0,90,0.03,,,0.04,meteobridge,2019-10-19 03:26:53,
2019-10-19 05:30:53,52.9,50,29.64,WSW,244,0,2,90,0.03,,,0.05,meteobridge,2019-10-19 03:30:53,
2019-10-19 05:36:53,52.9,50,29.64,WSW,247,0,1,90,0.03,,,0.05,meteobridge,2019-10-19 03:36:53,
2019-10-19 05:40:53,52.9,50,29.63,SE,141,1.1,3,90,0.03,,,0.05,meteobridge,2019-10-19 03:40:53,
2019-10-19 05:46:53,52.9,50.4,29.63,South,185,0,2,91,0,,,0.05,meteobridge,2019-10-19 03:46:53,
2019-10-19 05:50:54,52.9,50.4,29.63,South,185,0,1,91,0,,,0.05,meteobridge,2019-10-19 03:50:54,
2019-10-19 05:56:54,52.9,50.4,29.63,SSE,161,0,1,91,0.03,,,0.06,meteobridge,2019-10-19 03:56:54,
2019-10-19 06:00:54,52.7,50.2,29.63,SSE,155,0,1,91,0.03,,,0.06,meteobridge,2019-10-19 04:00:54,
2019-10-19 06:06:54,52.7,50.2,29.63,SSE,158,0,1,91,0.03,,,0.06,meteobridge,2019-10-19 04:06:54,
2019-10-19 06:10:54,52.7,50.2,29.63,SSE,149,0,4,91,0,,,0.06,meteobridge,2019-10-19 04:10:54,
2019-10-19 06:16:54,52.5,50.2,29.63,SE,137,0,0,92,0,,,0.06,meteobridge,2019-10-19 04:16:54,
2019-10-19 06:20:54,52.5,50.2,29.63,SE,133,0,2,92,0,,,0.06,meteobridge,2019-10-19 04:20:54,
2019-10-19 06:26:54,52.7,50.4,29.63,South,185,1.1,6,92,0.03,,,0.06,meteobridge,2019-10-19 04:26:54,
2019-10-19 06:30:54,52.7,50.4,29.62,SSW,202,1.1,4,92,0.03,,,0.06,meteobridge,2019-10-19 04:30:54,
2019-10-19 06:36:55,52.7,50.4,29.63,SSW,212,3.1,3,92,0.03,,,0.06,meteobridge,2019-10-19 04:36:55,
2019-10-19 06:40:55,52.7,50.4,29.62,South,175,0,3,92,0.03,,,0.06,meteobridge,2019-10-19 04:40:55,
2019-10-19 06:46:55,52.7,50.4,29.62,SSE,164,2,3,92,0,,,0.06,meteobridge,2019-10-19 04:46:55,
2019-10-19 06:50:55,52.7,50.4,29.62,SSW,209,1.1,3,92,0,,,0.06,meteobridge,2019-10-19 04:50:55,
2019-10-19 06:56:55,52.5,50.2,29.62,SW,234,1.1,4,92,0,,,0.06,meteobridge,2019-10-19 04:56:55,
2019-10-19 07:00:55,52.5,50.2,29.62,SSW,197,1.1,3,92,0,,,0.06,meteobridge,2019-10-19 05:00:55,
2019-10-19 07:06:55,52.5,50.2,29.62,ESE,121,0,1,92,0,,,0.06,meteobridge,2019-10-19 05:06:55,
2019-10-19 07:10:55,52.3,50,29.62,SSE,161,0,0,92,0,,,0.06,meteobridge,2019-10-19 05:10:55,
2019-10-19 07:16:56,52.3,50,29.61,SW,228,0,0,92,0,,,0.06,meteobridge,2019-10-19 05:16:56,
2019-10-19 07:20:56,52.3,50,29.61,SW,228,0,0,92,0,,,0.06,meteobridge,2019-10-19 05:20:56,
2019-10-19 07:26:56,52.3,50,29.61,South,188,0,0,92,0,,,0.06,meteobridge,2019-10-19 05:26:56,
2019-10-19 07:30:56,52.3,50,29.61,South,185,0,0,92,0,,,0.06,meteobridge,2019-10-19 05:30:56,
2019-10-19 07:36:56,52.2,49.8,29.61,South,185,0,0,92,0,,,0.06,meteobridge,2019-10-19 05:36:56,
2019-10-19 07:40:56,52.2,49.8,29.61,South,185,0,0,92,0,,,0.06,meteobridge,2019-10-19 05:40:56,
2019-10-19 07:46:56,52.2,49.8,29.61,SSE,168,0,3,92,0,,,0.06,meteobridge,2019-10-19 05:46:56,
2019-10-19 07:50:56,52.2,49.8,29.61,SSE,168,0,1,92,0,,,0.06,meteobridge,2019-10-19 05:50:56,
2019-10-19 07:56:56,52.3,50,29.61,SE,142,2,2,92,0,,,0.06,meteobridge,2019-10-19 05:56:56,
2019-10-19 08:00:57,52.3,50,29.61,SE,134,0,6,92,0,,,0.06,meteobridge,2019-10-19 06:00:57,
2019-10-19 08:06:57,52.3,50,29.60,SSW,197,0,2,92,0,,,0.06,meteobridge,2019-10-19 06:06:57,
2019-10-19 08:10:57,52.3,50,29.60,SSW,197,0,1,92,0,,,0.06,meteobridge,2019-10-19 06:10:57,
2019-10-19 08:16:57,52.3,50,29.61,WSW,247,0,1,92,0,,,0.06,meteobridge,2019-10-19 06:16:57,
2019-10-19 08:20:57,52.3,50,29.61,ESE,102,0,1,92,0,,,0.06,meteobridge,2019-10-19 06:20:57,
2019-10-19 08:26:57,52.3,50.4,29.61,ESE,123,1.1,2,93,0,,,0.06,meteobridge,2019-10-19 06:26:57,
2019-10-19 08:30:57,52.3,50.4,29.61,SE,127,0,2,93,0,,,0.06,meteobridge,2019-10-19 06:30:57,
2019-10-19 08:36:57,52.3,50.4,29.61,SE,141,0,2,93,0,,,0.06,meteobridge,2019-10-19 06:36:57,
2019-10-19 08:40:57,52.5,50.5,29.61,SE,137,0,2,93,0.03,,,0.07,meteobridge,2019-10-19 06:40:57,
2019-10-19 08:46:58,52.5,50.5,29.61,South,189,1.1,2,93,0.03,,,0.07,meteobridge,2019-10-19 06:46:58,
2019-10-19 08:50:58,52.5,50.5,29.61,SSE,154,0,1,93,0.03,,,0.07,meteobridge,2019-10-19 06:50:58,
2019-10-19 08:56:58,52.5,50.5,29.61,SSE,154,0,1,93,0,,,0.07,meteobridge,2019-10-19 06:56:58,
2019-10-19 09:00:58,52.5,50.5,29.61,SE,140,1.1,2,93,0,,,0.07,meteobridge,2019-10-19 07:00:58,
2019-10-19 09:06:58,52.7,50.7,29.62,SE,135,1.1,5,93,0,,,0.07,meteobridge,2019-10-19 07:06:58,
2019-10-19 09:10:58,52.9,50.9,29.61,SW,220,1.1,5,93,0,,,0.07,meteobridge,2019-10-19 07:10:58,
2019-10-19 09:16:58,52.9,50.9,29.62,SW,221,0,2,93,0,,,0.07,meteobridge,2019-10-19 07:16:58,
2019-10-19 09:20:58,52.9,50.9,29.62,SSE,157,2,3,93,0,,,0.07,meteobridge,2019-10-19 07:20:58,
2019-10-19 09:26:59,53.1,51.1,29.62,NW,306,3.1,5,93,0,,,0.07,meteobridge,2019-10-19 07:26:59,
2019-10-19 09:30:59,52.9,50.5,29.63,West,268,1.1,3,92,0,,,0.07,meteobridge,2019-10-19 07:30:59,
2019-10-19 09:36:59,52.2,49.6,29.63,WSW,243,2,3,91,0,,,0.07,meteobridge,2019-10-19 07:36:59,
2019-10-19 09:40:59,51.8,49.3,29.63,WNW,282,0,2,91,0,,,0.07,meteobridge,2019-10-19 07:40:59,
2019-10-19 09:46:59,51.4,48.9,29.63,NNW,333,4.3,4,91,0.03,,,0.08,meteobridge,2019-10-19 07:46:59,
2019-10-19 09:50:59,51.3,48.7,29.63,NNW,333,0,2,91,0.03,,,0.08,meteobridge,2019-10-19 07:50:59,
2019-10-19 09:56:59,51.3,49.1,29.63,WNW,290,0,2,92,0.03,,,0.08,meteobridge,2019-10-19 07:56:59,
2019-10-19 10:00:59,51.3,49.1,29.63,WNW,290,1.1,1,92,0.03,,,0.09,meteobridge,2019-10-19 08:00:59,
2019-10-19 10:06:59,51.1,48.9,29.63,North,351,0,2,92,0.03,,,0.09,meteobridge,2019-10-19 08:06:59,
2019-10-19 10:10:59,51.1,48.9,29.63,North,351,0,0,92,0.06,,,0.09,meteobridge,2019-10-19 08:10:59,
2019-10-19 10:15:00,51.1,49.1,29.63,North,0,0,3,93,0.06,,,0.09,meteobridge,2019-10-19 08:15:00,
2019-10-19 10:21:00,51.3,49.3,29.63,North,0,0,0,93,0.04,,,0.09,meteobridge,2019-10-19 08:21:00,
2019-10-19 10:25:00,51.3,49.3,29.63,WSW,250,0,2,93,0.03,,,0.09,meteobridge,2019-10-19 08:25:00,
2019-10-19 10:31:00,51.3,49.3,29.63,West,271,1.1,2,93,0,,,0.09,meteobridge,2019-10-19 08:31:00,
2019-10-19 10:35:00,51.3,49.3,29.63,WSW,243,0,3,93,0,,,0.09,meteobridge,2019-10-19 08:35:00,
2019-10-19 10:41:00,51.4,49.5,29.63,West,262,0,2,93,0.03,,,0.1,meteobridge,2019-10-19 08:41:00,
2019-10-19 10:45:00,51.4,49.5,29.63,SW,224,0,1,93,0.03,,,0.1,meteobridge,2019-10-19 08:45:00,
2019-10-19 10:51:00,51.6,49.6,29.63,WSW,238,0,1,93,0.03,,,0.1,meteobridge,2019-10-19 08:51:00,
2019-10-19 10:55:00,51.8,49.8,29.63,WSW,238,0,2,93,0,,,0.1,meteobridge,2019-10-19 08:55:00,
2019-10-19 11:01:01,52.2,50.2,29.63,SSW,209,0,2,93,0,,,0.1,meteobridge,2019-10-19 09:01:01,
2019-10-19 11:05:01,52.2,50.2,29.63,SW,228,1.1,1,93,0,,,0.1,meteobridge,2019-10-19 09:05:01,
2019-10-19 11:11:01,52.5,50.5,29.63,WSW,245,1.1,4,93,0,,,0.1,meteobridge,2019-10-19 09:11:01,
2019-10-19 11:15:01,52.7,50.7,29.63,WSW,255,2,3,93,0,,,0.1,meteobridge,2019-10-19 09:15:01,
2019-10-19 11:21:01,53.1,51.1,29.64,West,261,1.1,1,93,0,,,0.1,meteobridge,2019-10-19 09:21:01,
2019-10-19 11:25:01,53.1,51.1,29.64,WSW,250,1.1,2,93,0,,,0.1,meteobridge,2019-10-19 09:25:01,
2019-10-19 11:31:01,53.1,51.1,29.64,WSW,251,1.1,4,93,0,,,0.1,meteobridge,2019-10-19 09:31:01,
2019-10-19 11:35:01,53.2,51.3,29.64,SSW,203,0,4,93,0,,,0.1,meteobridge,2019-10-19 09:35:01,
2019-10-19 11:41:01,53.2,50.9,29.63,SSW,195,0,5,92,0,,,0.1,meteobridge,2019-10-19 09:41:01,
2019-10-19 11:45:02,53.2,50.9,29.63,SE,135,1.1,3,92,0,,,0.1,meteobridge,2019-10-19 09:45:02,
2019-10-19 11:51:02,53.4,51.1,29.63,SSW,213,1.1,4,92,0,,,0.1,meteobridge,2019-10-19 09:51:02,
2019-10-19 11:55:02,53.6,51.3,29.64,SSE,147,0,5,92,0,,,0.1,meteobridge,2019-10-19 09:55:02,
2019-10-19 12:01:02,54,51.6,29.64,WSW,240,0,1,92,0,,,0.1,meteobridge,2019-10-19 10:01:02,
2019-10-19 12:05:02,54.1,51.8,29.63,West,261,3.1,3,92,0,,,0.1,meteobridge,2019-10-19 10:05:02,
2019-10-19 12:11:02,54.3,51.8,29.64,WSW,252,2,2,91,0,,,0.1,meteobridge,2019-10-19 10:11:02,
2019-10-19 12:15:02,54.7,52.3,29.64,WSW,245,0,3,92,0,,,0.1,meteobridge,2019-10-19 10:15:02,
2019-10-19 12:21:02,55,52.5,29.64,West,262,2,3,91,0,,,0.1,meteobridge,2019-10-19 10:21:02,
2019-10-19 12:25:03,55.2,52.3,29.64,SSE,165,2,3,90,0,,,0.1,meteobridge,2019-10-19 10:25:03,
2019-10-19 12:31:03,55.8,52.5,29.64,SE,142,2,4,89,0,,,0.1,meteobridge,2019-10-19 10:31:03,
2019-10-19 12:35:03,55.8,52.3,29.64,SSW,196,1.1,2,88,0,,,0.1,meteobridge,2019-10-19 10:35:03,
2019-10-19 12:41:03,56.1,52.7,29.64,SSW,193,0,3,88,0,,,0.1,meteobridge,2019-10-19 10:41:03,
2019-10-19 12:45:03,56.3,52.9,29.64,SSW,195,2,2,88,0,,,0.1,meteobridge,2019-10-19 10:45:03,
2019-10-19 12:51:03,56.7,52.9,29.63,SSE,166,0,2,87,0,,,0.1,meteobridge,2019-10-19 10:51:03,
2019-10-19 12:55:03,56.8,52.7,29.63,SW,223,2,4,86,0,,,0.1,meteobridge,2019-10-19 10:55:03,
2019-10-19 13:01:03,56.8,51.8,29.63,SSW,195,1.1,5,83,0,,,0.1,meteobridge,2019-10-19 11:01:03,
2019-10-19 13:05:03,56.8,51.8,29.63,SSW,195,2,5,83,0,,,0.1,meteobridge,2019-10-19 11:05:03,
2019-10-19 13:11:04,56.8,51.8,29.63,SE,137,1.1,3,83,0,,,0.1,meteobridge,2019-10-19 11:11:04,
2019-10-19 13:15:04,57,51.6,29.63,West,259,1.1,6,82,0,,,0.1,meteobridge,2019-10-19 11:15:04,
2019-10-19 13:21:04,57.4,52.3,29.63,South,180,2,3,83,0,,,0.1,meteobridge,2019-10-19 11:21:04,
2019-10-19 13:25:04,57.6,51.8,29.63,West,266,1.1,2,81,0,,,0.1,meteobridge,2019-10-19 11:25:04,
2019-10-19 13:31:04,57.6,51.4,29.63,SW,221,3.1,4,80,0,,,0.1,meteobridge,2019-10-19 11:31:04,
2019-10-19 13:35:04,57.6,51.4,29.62,WSW,238,1.1,2,80,0,,,0.1,meteobridge,2019-10-19 11:35:04,
2019-10-19 13:41:04,57.6,51.1,29.63,SSW,206,1.1,4,79,0,,,0.1,meteobridge,2019-10-19 11:41:04,
2019-10-19 13:45:04,57.4,51.3,29.62,WSW,250,3.1,4,80,0,,,0.1,meteobridge,2019-10-19 11:45:04,
2019-10-19 13:51:04,57.2,51.1,29.62,West,281,0,4,80,0,,,0.1,meteobridge,2019-10-19 11:51:04,
2019-10-19 13:55:05,57.2,51.1,29.62,SW,219,0,2,80,0,,,0.1,meteobridge,2019-10-19 11:55:05,
2019-10-19 14:01:05,57,51.3,29.63,South,190,2,4,81,0,,,0.1,meteobridge,2019-10-19 12:01:05,
2019-10-19 14:05:05,57,51.3,29.63,SW,214,0,0,81,0,,,0.1,meteobridge,2019-10-19 12:05:05,
2019-10-19 14:11:05,57,50.9,29.63,South,176,0,2,80,0,,,0.1,meteobridge,2019-10-19 12:11:05,
2019-10-19 14:15:05,57.2,51.4,29.63,WSW,252,1.1,3,81,0,,,0.1,meteobridge,2019-10-19 12:15:05,
2019-10-19 14:21:05,57.4,51.3,29.63,WSW,251,0,2,80,0,,,0.1,meteobridge,2019-10-19 12:21:05,
2019-10-19 14:25:05,57.4,51.3,29.63,WSW,251,0,1,80,0,,,0.1,meteobridge,2019-10-19 12:25:05,
2019-10-19 14:31:05,57.6,51.4,29.63,SSW,195,1.1,4,80,0,,,0.1,meteobridge,2019-10-19 12:31:05,
2019-10-19 14:35:05,57.7,51.6,29.63,SSW,192,0,3,80,0,,,0.1,meteobridge,2019-10-19 12:35:05,
2019-10-19 14:41:06,57.7,50.9,29.63,South,179,0,3,78,0,,,0.1,meteobridge,2019-10-19 12:41:06,
2019-10-19 14:45:06,57.7,51.3,29.63,SW,221,0,3,79,0,,,0.1,meteobridge,2019-10-19 12:45:06,
2019-10-19 14:51:06,57.7,50.9,29.63,SSW,210,0,1,78,0,,,0.1,meteobridge,2019-10-19 12:51:06,
2019-10-19 14:55:06,57.7,51.3,29.63,WSW,244,1.1,2,79,0,,,0.1,meteobridge,2019-10-19 12:55:06,
2019-10-19 15:01:06,57.7,50.9,29.63,ESE,107,3.1,3,78,0,,,0.1,meteobridge,2019-10-19 13:01:06,
2019-10-19 15:05:06,57.6,50.7,29.63,SSW,203,2,4,78,0,,,0.1,meteobridge,2019-10-19 13:05:06,
2019-10-19 15:11:06,57.4,50.5,29.63,SSE,159,0,2,78,0,,,0.1,meteobridge,2019-10-19 13:11:06,
2019-10-19 15:15:06,57.4,50.9,29.63,SW,234,1.1,4,79,0,,,0.1,meteobridge,2019-10-19 13:15:06,
2019-10-19 15:21:06,57.4,50.5,29.63,SSW,204,0,4,78,0,,,0.1,meteobridge,2019-10-19 13:21:06,
2019-10-19 15:25:06,57.4,50.9,29.63,South,180,0,2,79,0,,,0.1,meteobridge,2019-10-19 13:25:06,
2019-10-19 15:31:07,57.4,50.9,29.63,SW,233,2,2,79,0,,,0.1,meteobridge,2019-10-19 13:31:07,
2019-10-19 15:35:07,57.2,50.7,29.63,SSW,203,0,3,79,0,,,0.1,meteobridge,2019-10-19 13:35:07,
2019-10-19 15:41:07,57,50.5,29.63,South,190,1.1,4,79,0,,,0.1,meteobridge,2019-10-19 13:41:07,
2019-10-19 15:45:07,57,50.2,29.63,South,188,0,3,78,0,,,0.1,meteobridge,2019-10-19 13:45:07,
2019-10-19 15:51:07,56.8,50.4,29.63,West,269,1.1,3,79,0,,,0.1,meteobridge,2019-10-19 13:51:07,
2019-10-19 15:55:07,56.8,50.4,29.63,SSW,203,0,3,79,0,,,0.1,meteobridge,2019-10-19 13:55:07,
2019-10-19 16:01:07,56.8,50.7,29.63,NNW,333,3.1,3,80,0,,,0.1,meteobridge,2019-10-19 14:01:07,
2019-10-19 16:05:08,57,50.5,29.63,SE,130,0,2,79,0,,,0.1,meteobridge,2019-10-19 14:05:08,
2019-10-19 16:11:08,57,50.5,29.63,SSW,196,0,2,79,0,,,0.1,meteobridge,2019-10-19 14:11:08,
2019-10-19 16:15:08,57,50.5,29.63,SSW,196,0,1,79,0,,,0.1,meteobridge,2019-10-19 14:15:08,
2019-10-19 16:21:08,56.8,50.4,29.63,SSW,209,2,2,79,0,,,0.1,meteobridge,2019-10-19 14:21:08,
2019-10-19 16:25:08,56.8,50.4,29.64,SSW,210,0,1,79,0,,,0.1,meteobridge,2019-10-19 14:25:08,
2019-10-19 16:31:08,56.8,50.7,29.63,SSW,210,0,2,80,0,,,0.1,meteobridge,2019-10-19 14:31:08,
2019-10-19 16:35:08,56.8,50.7,29.64,SSW,210,0,1,80,0,,,0.1,meteobridge,2019-10-19 14:35:08,
2019-10-19 16:41:08,56.7,50.5,29.64,SSE,152,0,1,80,0,,,0.1,meteobridge,2019-10-19 14:41:08,
2019-10-19 16:45:08,56.7,50.5,29.63,South,186,1.1,2,80,0,,,0.1,meteobridge,2019-10-19 14:45:08,
2019-10-19 16:51:09,56.7,50.9,29.64,SW,223,0,2,81,0,,,0.1,meteobridge,2019-10-19 14:51:09,
2019-10-19 16:55:09,56.7,50.9,29.64,WSW,252,0,3,81,0,,,0.1,meteobridge,2019-10-19 14:55:09,
2019-10-19 17:01:09,56.7,51.3,29.64,WSW,252,1.1,2,82,0,,,0.1,meteobridge,2019-10-19 15:01:09,
2019-10-19 17:05:09,56.5,51.1,29.64,West,264,0,1,82,0,,,0.1,meteobridge,2019-10-19 15:05:09,
2019-10-19 17:11:09,56.5,51.1,29.64,West,264,1.1,2,82,0,,,0.1,meteobridge,2019-10-19 15:11:09,
2019-10-19 17:15:09,56.3,50.5,29.64,West,272,0,3,81,0,,,0.1,meteobridge,2019-10-19 15:15:09,
2019-10-19 17:21:09,56.1,50.7,29.65,WSW,237,0,0,82,0,,,0.1,meteobridge,2019-10-19 15:21:09,
2019-10-19 17:25:09,56.1,50.7,29.65,WSW,237,0,0,82,0,,,0.1,meteobridge,2019-10-19 15:25:09,
2019-10-19 17:31:09,56.1,50.7,29.64,WSW,237,0,0,82,0,,,0.1,meteobridge,2019-10-19 15:31:09,
2019-10-19 17:35:09,55.9,50.9,29.64,WSW,237,0,0,83,0,,,0.1,meteobridge,2019-10-19 15:35:09,
2019-10-19 17:41:10,55.9,51.3,29.64,WSW,237,0,0,84,0,,,0.1,meteobridge,2019-10-19 15:41:10,
2019-10-19 17:45:10,55.9,51.3,29.64,WSW,237,0,0,84,0,,,0.1,meteobridge,2019-10-19 15:45:10,
2019-10-19 17:51:10,55.8,51.1,29.64,WSW,237,0,0,84,0,,,0.1,meteobridge,2019-10-19 15:51:10,
2019-10-19 17:55:10,55.6,50.9,29.64,WSW,237,0,0,84,0,,,0.1,meteobridge,2019-10-19 15:55:10,
2019-10-19 18:01:10,55.4,50.7,29.64,WSW,237,0,0,84,0,,,0.1,meteobridge,2019-10-19 16:01:10,
2019-10-19 18:05:10,55.2,50.5,29.64,WSW,237,0,0,84,0,,,0.1,meteobridge,2019-10-19 16:05:10,
2019-10-19 18:11:10,55,50.5,29.64,WSW,237,0,0,85,0,,,0.1,meteobridge,2019-10-19 16:11:10,
2019-10-19 18:15:10,55,50.5,29.65,WSW,237,0,0,85,0,,,0.1,meteobridge,2019-10-19 16:15:10,
2019-10-19 18:21:11,54.9,50.4,29.65,WSW,237,0,0,85,0,,,0.1,meteobridge,2019-10-19 16:21:11,
2019-10-19 18:25:11,54.5,50,29.65,WSW,237,0,0,85,0,,,0.1,meteobridge,2019-10-19 16:25:11,
2019-10-19 18:31:11,54.3,49.8,29.65,WSW,237,0,0,85,0,,,0.1,meteobridge,2019-10-19 16:31:11,
2019-10-19 18:35:11,54.1,49.8,29.65,WSW,237,0,0,85,0,,,0.1,meteobridge,2019-10-19 16:35:11,
2019-10-19 18:41:11,53.8,49.6,29.65,WSW,237,0,0,86,0,,,0.1,meteobridge,2019-10-19 16:41:11,
2019-10-19 18:45:11,53.8,49.6,29.65,WSW,237,0,0,86,0,,,0.1,meteobridge,2019-10-19 16:45:11,
2019-10-19 18:51:11,53.2,49.1,29.65,WSW,237,0,0,86,0,,,0.1,meteobridge,2019-10-19 16:51:11,
2019-10-19 18:55:11,53.1,49.3,29.65,WSW,237,0,0,87,0,,,0.1,meteobridge,2019-10-19 16:55:11,
2019-10-19 19:01:12,52.9,49.1,29.65,WSW,237,0,0,87,0,,,0.1,meteobridge,2019-10-19 17:01:12,
2019-10-19 19:05:12,52.5,48.7,29.65,WSW,237,0,0,87,0,,,0.1,meteobridge,2019-10-19 17:05:12,
2019-10-19 19:11:12,52.3,48.9,29.65,WSW,237,0,0,88,0,,,0.1,meteobridge,2019-10-19 17:11:12,
2019-10-19 19:15:12,52.2,48.7,29.65,WSW,237,0,0,88,0,,,0.1,meteobridge,2019-10-19 17:15:12,
2019-10-19 19:21:12,51.6,48.2,29.66,WSW,237,0,0,88,0,,,0.1,meteobridge,2019-10-19 17:21:12,
2019-10-19 19:25:12,51.4,48,29.66,WSW,237,0,0,88,0,,,0.1,meteobridge,2019-10-19 17:25:12,
2019-10-19 19:31:12,51.3,48.2,29.66,WSW,237,0,0,89,0,,,0.1,meteobridge,2019-10-19 17:31:12,
2019-10-19 19:35:12,51.3,48.2,29.66,WSW,237,0,0,89,0,,,0.1,meteobridge,2019-10-19 17:35:12,
2019-10-19 19:41:12,50.9,47.8,29.66,WSW,237,0,0,89,0,,,0.1,meteobridge,2019-10-19 17:41:12,
2019-10-19 19:45:12,50.5,47.5,29.66,WSW,237,0,0,89,0,,,0.1,meteobridge,2019-10-19 17:45:12,
2019-10-19 19:51:13,50.2,47.1,29.66,WSW,237,0,0,89,0,,,0.1,meteobridge,2019-10-19 17:51:13,
2019-10-19 19:55:13,50,46.9,29.67,WSW,237,0,0,89,0,,,0.1,meteobridge,2019-10-19 17:55:13,
2019-10-19 20:01:13,49.6,46.8,29.67,WSW,237,0,0,90,0,,,0.1,meteobridge,2019-10-19 18:01:13,
2019-10-19 20:05:13,49.6,46.8,29.67,WSW,237,0,0,90,0,,,0.1,meteobridge,2019-10-19 18:05:13,
2019-10-19 20:11:13,49.5,46.6,29.67,WSW,237,0,0,90,0,,,0.1,meteobridge,2019-10-19 18:11:13,
2019-10-19 20:15:13,49.3,46.8,29.67,WSW,237,0,0,91,0,,,0.1,meteobridge,2019-10-19 18:15:13,
2019-10-19 20:21:13,48.7,45.9,29.67,WSW,237,0,0,90,0,,,0.1,meteobridge,2019-10-19 18:21:13,
2019-10-19 20:25:13,48.6,46,29.67,WSW,237,0,0,91,0,,,0.1,meteobridge,2019-10-19 18:25:13,
2019-10-19 20:31:14,48.6,46,29.67,WSW,237,0,0,91,0,,,0.1,meteobridge,2019-10-19 18:31:14,
2019-10-19 20:35:14,48.6,46,29.67,WSW,237,0,0,91,0,,,0.1,meteobridge,2019-10-19 18:35:14,
2019-10-19 20:41:14,48.2,45.7,29.68,WSW,237,0,0,91,0,,,0.1,meteobridge,2019-10-19 18:41:14,
2019-10-19 20:45:14,48,45.5,29.68,WSW,237,0,0,91,0,,,0.1,meteobridge,2019-10-19 18:45:14,
2019-10-19 20:51:14,47.8,45.3,29.68,WSW,237,0,0,91,0,,,0.1,meteobridge,2019-10-19 18:51:14,
2019-10-19 20:55:14,47.7,45.1,29.68,WSW,237,0,0,91,0,,,0.1,meteobridge,2019-10-19 18:55:14,
2019-10-19 21:01:14,47.3,44.8,29.68,WSW,237,0,0,91,0,,,0.1,meteobridge,2019-10-19 19:01:14,
2019-10-19 21:05:14,47.3,45.1,29.68,WSW,237,0,0,92,0,,,0.1,meteobridge,2019-10-19 19:05:14,
2019-10-19 21:11:15,47.3,45.1,29.68,WSW,237,0,0,92,0,,,0.1,meteobridge,2019-10-19 19:11:15,
2019-10-19 21:15:15,47.1,45,29.68,WSW,237,0,0,92,0,,,0.1,meteobridge,2019-10-19 19:15:15,
2019-10-19 21:21:15,47.5,45.5,29.69,WSW,237,0,0,93,0,,,0.1,meteobridge,2019-10-19 19:21:15,
2019-10-19 21:25:15,47.7,45.7,29.68,WSW,237,0,0,93,0,,,0.1,meteobridge,2019-10-19 19:25:15,
2019-10-19 21:31:15,47.8,45.9,29.68,WSW,237,0,0,93,0,,,0.1,meteobridge,2019-10-19 19:31:15,
2019-10-19 21:35:15,47.8,45.9,29.69,WSW,237,0,0,93,0,,,0.1,meteobridge,2019-10-19 19:35:15,
2019-10-19 21:41:15,47.8,45.9,29.69,WSW,237,0,0,93,0,,,0.1,meteobridge,2019-10-19 19:41:15,
2019-10-19 21:45:15,47.8,45.9,29.69,WSW,237,0,0,93,0,,,0.1,meteobridge,2019-10-19 19:45:15,
2019-10-19 21:51:15,48.4,46.8,29.69,WSW,237,0,0,94,0,,,0.1,meteobridge,2019-10-19 19:51:15,
2019-10-19 21:55:15,48.4,46.8,29.69,WSW,237,0,0,94,0,,,0.1,meteobridge,2019-10-19 19:55:15,
2019-10-19 22:01:16,48.4,46.8,29.69,WSW,237,0,0,94,0,,,0.1,meteobridge,2019-10-19 20:01:16,
2019-10-19 22:05:16,48.4,46.8,29.70,WSW,237,0,0,94,0,,,0.1,meteobridge,2019-10-19 20:05:16,
2019-10-19 22:11:16,48.4,46.8,29.69,WSW,237,0,0,94,0,,,0.1,meteobridge,2019-10-19 20:11:16,
2019-10-19 22:15:16,48.6,46.9,29.70,WSW,237,0,0,94,0,,,0.1,meteobridge,2019-10-19 20:15:16,
2019-10-19 22:21:16,48.7,47.1,29.70,WSW,238,0,0,94,0,,,0.1,meteobridge,2019-10-19 20:21:16,
2019-10-19 22:25:16,48.9,47.3,29.70,WSW,238,0,0,94,0,,,0.1,meteobridge,2019-10-19 20:25:16,
2019-10-19 22:31:16,49.1,47.5,29.70,WSW,238,0,0,94,0,,,0.1,meteobridge,2019-10-19 20:31:16,
2019-10-19 22:35:16,48.9,47.3,29.70,WSW,238,0,0,94,0,,,0.1,meteobridge,2019-10-19 20:35:16,
2019-10-19 22:41:17,48.9,47.3,29.70,WSW,238,0,0,94,0,,,0.1,meteobridge,2019-10-19 20:41:17,
2019-10-19 22:45:17,48.9,47.3,29.70,WSW,238,0,0,94,0,,,0.1,meteobridge,2019-10-19 20:45:17,
2019-10-19 22:51:17,48.9,47.3,29.70,WSW,238,0,0,94,0,,,0.1,meteobridge,2019-10-19 20:51:17,
2019-10-19 22:55:17,48.9,47.3,29.70,WSW,238,0,0,94,0,,,0.1,meteobridge,2019-10-19 20:55:17,
2019-10-19 23:01:17,48.9,47.3,29.70,WSW,238,0,0,94,0,,,0.1,meteobridge,2019-10-19 21:01:17,
2019-10-19 23:05:17,48.9,47.3,29.70,WSW,238,0,0,94,0,,,0.1,meteobridge,2019-10-19 21:05:17,
2019-10-19 23:11:17,48.9,47.3,29.71,WSW,238,0,0,94,0,,,0.1,meteobridge,2019-10-19 21:11:17,
2019-10-19 23:15:17,48.9,47.3,29.70,WSW,238,0,0,94,0,,,0.1,meteobridge,2019-10-19 21:15:17,
2019-10-19 23:21:17,49.1,47.5,29.71,WSW,238,0,0,94,0,,,0.1,meteobridge,2019-10-19 21:21:17,
2019-10-19 23:25:17,49.1,47.5,29.70,WSW,238,0,0,94,0,,,0.1,meteobridge,2019-10-19 21:25:17,
2019-10-19 23:31:18,49.3,47.7,29.71,WSW,238,0,0,94,0,,,0.1,meteobridge,2019-10-19 21:31:18,
2019-10-19 23:35:18,49.5,47.8,29.71,WSW,238,0,0,94,0,,,0.1,meteobridge,2019-10-19 21:35:18,
2019-10-19 23:41:18,49.6,48,29.72,WSW,240,0,0,94,0,,,0.1,meteobridge,2019-10-19 21:41:18,
2019-10-19 23:45:18,49.8,48.4,29.72,WSW,240,0,0,95,0,,,0.1,meteobridge,2019-10-19 21:45:18,
2019-10-19 23:51:18,50,48.6,29.72,WSW,240,0,0,95,0,,,0.1,meteobridge,2019-10-19 21:51:18,
2019-10-19 23:55:18,50.2,48.7,29.72,WSW,240,0,0,95,0,,,0.1,meteobridge,2019-10-19 21:55:18,